NO-0015 weather

Ler Airfield
Melhus, Sør-Trøndelag, Norway

Public forecast

Using degrees Celsius for public forecast. Weather courtesy of forecast.io.

METAR (pilot weather report)

Closest report is Trondheim Airport Værnes, 23.1 nm (42.9 km) NE. Retrieved 2019/07/17 13:20 UTC (19 minutes ago):

ENVA 171320Z 26010KT 9999 FEW030 16/09 Q1012 NOSIG RMK WIND 670FT 29007KT

TAF (pilot weather forecast)

Closest forecast is Trondheim Airport Værnes, 23.1 nm (42.9 km) NE. Retrieved 2019/07/17 12:57 UTC (42 minutes ago):

TAF ENVA 171100Z 1712/1812 26010KT 9999 SCT030 BECMG 1718/1721 12007KT